createdAt,value
2019-01-30T00:02:59.537Z,-0.46
2019-01-30T00:08:55.699Z,-0.35
2019-01-30T00:11:59.025Z,-0.31
2019-01-30T00:15:00.164Z,-0.30
2019-01-30T00:17:57.502Z,-0.28
2019-01-30T00:23:53.034Z,-0.04
2019-01-30T00:27:13.321Z,0.08
2019-01-30T00:30:20.023Z,-0.01
2019-01-30T00:33:23.733Z,-0.22
2019-01-30T00:36:17.368Z,-0.42
2019-01-30T00:42:09.005Z,-0.53
2019-01-30T00:45:19.411Z,-0.17
2019-01-30T00:48:22.888Z,-0.28
2019-01-30T00:51:35.220Z,-0.47
2019-01-30T00:54:17.488Z,-0.54
2019-01-30T00:57:36.386Z,-0.58
2019-01-30T01:00:27.860Z,-0.47
2019-01-30T01:06:23.463Z,-0.56
2019-01-30T01:09:08.352Z,-0.88
2019-01-30T01:15:14.178Z,-1.13
2019-01-30T01:18:21.999Z,-1.09
2019-01-30T01:21:26.716Z,-1.21
2019-01-30T01:24:13.122Z,-0.94
2019-01-30T01:26:59.705Z,-0.26
2019-01-30T01:30:04.347Z,-0.26
2019-01-30T01:32:54.058Z,-0.17
2019-01-30T01:35:31.048Z,-0.17
2019-01-30T01:38:32.899Z,-0.17
2019-01-30T01:41:14.499Z,-0.24
2019-01-30T01:43:52.348Z,-0.44
2019-01-30T01:46:59.874Z,-0.31
2019-01-30T01:49:43.354Z,-0.43
2019-01-30T01:52:51.346Z,-0.43
2019-01-30T01:55:53.761Z,-0.48
2019-01-30T02:02:24.469Z,-0.92
2019-01-30T02:05:16.398Z,-1.02
2019-01-30T02:11:50.901Z,-0.80
2019-01-30T02:14:57.829Z,-0.25
2019-01-30T02:17:37.824Z,-0.48
2019-01-30T02:20:24.305Z,-0.37
2019-01-30T02:23:14.803Z,-0.66
2019-01-30T02:25:47.443Z,-0.75
2019-01-30T02:28:53.669Z,-0.92
2019-01-30T02:31:31.608Z,-0.79
2019-01-30T02:34:36.729Z,-0.79
2019-01-30T02:37:43.185Z,-0.79
2019-01-30T02:41:08.911Z,-0.86
2019-01-30T02:44:14.175Z,-0.71
2019-01-30T02:47:18.751Z,-0.81
2019-01-30T02:50:06.434Z,-1.07
2019-01-30T02:53:11.363Z,-1.07
2019-01-30T02:56:07.962Z,-0.76
2019-01-30T02:59:12.154Z,-0.56
2019-01-30T03:02:18.765Z,-0.50
2019-01-30T03:05:33.238Z,-0.74
2019-01-30T03:08:39.708Z,-0.98
2019-01-30T03:12:10.369Z,-0.92
2019-01-30T03:15:05.040Z,-1.05
2019-01-30T03:17:45.288Z,-0.87
2019-01-30T03:20:46.942Z,-0.72
2019-01-30T03:23:41.801Z,-0.77
2019-01-30T03:26:20.757Z,-0.81
2019-01-30T03:29:03.770Z,-0.70
2019-01-30T03:35:17.407Z,-0.67
2019-01-30T03:38:07.845Z,-0.32
2019-01-30T03:41:06.134Z,-0.51
2019-01-30T03:43:55.457Z,-0.63
2019-01-30T03:47:00.549Z,-0.61
2019-01-30T03:50:00.575Z,-0.59
2019-01-30T03:52:47.753Z,-0.78
2019-01-30T03:55:41.406Z,-0.68
2019-01-30T03:58:43.510Z,-0.37
2019-01-30T04:01:41.199Z,-0.12
2019-01-30T04:04:49.204Z,-0.32
2019-01-30T04:07:41.120Z,-0.29
2019-01-30T04:10:44.427Z,-0.59
2019-01-30T04:13:40.107Z,-0.84
2019-01-30T04:16:46.950Z,-0.88
2019-01-30T04:23:06.213Z,-1.25
2019-01-30T04:26:04.065Z,-1.09
2019-01-30T04:29:16.893Z,-1.22
2019-01-30T04:32:41.275Z,-1.22
2019-01-30T04:35:38.875Z,-1.03
2019-01-30T04:42:00.018Z,-1.30
2019-01-30T04:44:53.298Z,-1.38
2019-01-30T04:47:44.388Z,-1.42
2019-01-30T04:50:24.582Z,-1.34
2019-01-30T04:53:38.591Z,-1.19
2019-01-30T04:56:22.951Z,-1.07
2019-01-30T04:59:17.916Z,-1.02
2019-01-30T05:02:12.798Z,-1.05
2019-01-30T05:05:14.747Z,-1.02
2019-01-30T05:08:20.634Z,-1.04
2019-01-30T05:11:22.357Z,-1.09
2019-01-30T05:14:01.550Z,-1.13
2019-01-30T05:16:57.331Z,-1.11
2019-01-30T05:19:55.610Z,-0.76
2019-01-30T05:22:46.763Z,-0.76
2019-01-30T05:25:48.205Z,-0.42
2019-01-30T05:28:42.843Z,-0.27
2019-01-30T05:31:31.950Z,-0.42
2019-01-30T05:34:15.762Z,-0.50
2019-01-30T05:37:15.632Z,-0.54
2019-01-30T05:40:15.780Z,-0.59
2019-01-30T05:43:09.813Z,-0.73
2019-01-30T05:45:55.983Z,-0.76
2019-01-30T05:48:29.349Z,-0.71
2019-01-30T05:51:32.861Z,-0.67
2019-01-30T05:54:25.825Z,-0.61
2019-01-30T05:57:36.078Z,-0.59
2019-01-30T06:00:39.180Z,-0.42
2019-01-30T06:03:23.565Z,-0.02
2019-01-30T06:06:34.922Z,-0.01
2019-01-30T06:09:33.217Z,-0.06
2019-01-30T06:12:40.791Z,-0.12
2019-01-30T06:15:19.820Z,-0.08
2019-01-30T06:18:02.962Z,-0.07
2019-01-30T06:20:47.492Z,-0.19
2019-01-30T06:23:32.744Z,-0.30
2019-01-30T06:26:36.135Z,-0.41
2019-01-30T06:29:15.422Z,-0.46
2019-01-30T06:32:36.159Z,-0.58
2019-01-30T06:38:55.049Z,-0.71
2019-01-30T06:45:00.795Z,-0.20
2019-01-30T06:47:49.084Z,0.31
2019-01-30T06:50:47.102Z,0.52
2019-01-30T06:53:47.643Z,0.65
2019-01-30T06:56:27.114Z,0.75
2019-01-30T06:59:02.212Z,0.84
2019-01-30T07:07:45.050Z,1.04
2019-01-30T07:10:31.595Z,0.94
2019-01-30T07:13:13.993Z,0.84
2019-01-30T07:15:53.599Z,0.99
2019-01-30T07:18:34.908Z,1.01
2019-01-30T07:21:11.650Z,0.80
2019-01-30T07:23:48.920Z,0.87
2019-01-30T07:26:19.654Z,0.92
2019-01-30T07:28:55.786Z,0.88
2019-01-30T07:31:38.767Z,0.79
2019-01-30T07:34:15.838Z,0.81
2019-01-30T07:37:03.449Z,0.84
2019-01-30T07:39:46.954Z,0.89
2019-01-30T07:42:37.795Z,0.92
2019-01-30T07:45:32.375Z,1.11
2019-01-30T07:48:10.628Z,1.54
2019-01-30T07:50:48.792Z,2.14
2019-01-30T07:53:22.675Z,2.74
2019-01-30T07:56:06.236Z,3.32
2019-01-30T07:58:35.993Z,3.86
2019-01-30T08:01:09.428Z,4.28
2019-01-30T08:03:48.331Z,4.64
2019-01-30T08:06:31.336Z,4.83
2019-01-30T08:09:12.033Z,3.14
2019-01-30T08:11:48.951Z,2.84
2019-01-30T08:14:31.748Z,2.82
2019-01-30T08:17:16.796Z,2.71
2019-01-30T08:19:56.059Z,2.75
2019-01-30T08:22:32.841Z,2.60
2019-01-30T08:25:18.702Z,2.49
2019-01-30T08:28:05.398Z,2.57
2019-01-30T08:30:42.753Z,2.14
2019-01-30T08:33:23.928Z,1.95
2019-01-30T08:36:02.418Z,1.93
2019-01-30T08:38:55.628Z,1.95
2019-01-30T08:41:33.070Z,1.98
2019-01-30T08:44:28.450Z,2.18
2019-01-30T08:47:48.719Z,2.26
2019-01-30T08:50:26.708Z,2.30
2019-01-30T08:53:21.707Z,2.35
2019-01-30T08:56:24.834Z,2.34
2019-01-30T08:59:08.103Z,2.30
2019-01-30T09:02:10.809Z,2.17
2019-01-30T09:05:04.092Z,2.04
2019-01-30T09:07:55.419Z,2.01
2019-01-30T09:10:43.604Z,2.11
2019-01-30T09:13:46.300Z,2.10
2019-01-30T09:16:44.161Z,1.91
2019-01-30T09:19:46.244Z,1.92
2019-01-30T09:22:32.246Z,1.94
2019-01-30T09:25:55.401Z,1.78
2019-01-30T09:28:57.716Z,1.77
2019-01-30T09:31:48.131Z,1.83
2019-01-30T09:34:27.562Z,1.89
2019-01-30T09:37:15.345Z,1.86
2019-01-30T09:39:52.250Z,1.86
2019-01-30T09:42:36.592Z,1.88
2019-01-30T09:45:23.307Z,2.13
2019-01-30T09:48:07.327Z,2.10
2019-01-30T09:50:51.336Z,2.28
2019-01-30T09:53:30.688Z,2.26
2019-01-30T09:56:04.586Z,2.32
2019-01-30T09:58:45.645Z,2.24
2019-01-30T10:01:18.391Z,2.19
2019-01-30T10:04:01.581Z,2.15
2019-01-30T10:06:52.102Z,2.03
2019-01-30T10:09:40.525Z,1.99
2019-01-30T10:12:28.370Z,2.11
2019-01-30T10:15:04.654Z,2.11
2019-01-30T10:17:48.575Z,2.28
2019-01-30T10:20:27.131Z,2.33
2019-01-30T10:23:01.297Z,2.41
2019-01-30T10:25:40.298Z,2.52
2019-01-30T10:28:19.618Z,2.52
2019-01-30T10:31:04.557Z,2.57
2019-01-30T10:33:46.527Z,2.49
2019-01-30T10:36:30.815Z,2.44
2019-01-30T10:39:07.634Z,2.36
2019-01-30T10:41:46.437Z,2.25
2019-01-30T10:44:32.468Z,2.25
2019-01-30T10:47:17.169Z,2.34
2019-01-30T10:49:57.971Z,2.30
2019-01-30T10:52:37.320Z,2.33
2019-01-30T10:55:16.837Z,2.31
2019-01-30T10:57:51.397Z,2.29
2019-01-30T11:00:32.102Z,2.34
2019-01-30T11:03:11.082Z,2.41
2019-01-30T11:05:44.418Z,2.43
2019-01-30T11:08:24.240Z,2.53
2019-01-30T11:11:08.356Z,2.54
2019-01-30T11:13:51.462Z,2.50
2019-01-30T11:16:26.698Z,2.56
2019-01-30T11:19:05.280Z,2.51
2019-01-30T11:21:50.762Z,2.42
2019-01-30T11:24:32.891Z,2.38
2019-01-30T11:27:11.111Z,2.38
2019-01-30T11:29:44.254Z,2.38
2019-01-30T11:32:43.671Z,2.41
2019-01-30T11:35:32.347Z,2.51
2019-01-30T11:38:36.098Z,2.48
2019-01-30T11:41:33.633Z,2.45
2019-01-30T11:44:24.097Z,2.31
2019-01-30T11:47:12.064Z,2.32
2019-01-30T11:49:50.050Z,2.35
2019-01-30T11:52:25.513Z,2.29
2019-01-30T11:55:06.699Z,2.43
2019-01-30T11:57:42.632Z,2.52
2019-01-30T12:00:39.747Z,2.52
2019-01-30T12:03:20.181Z,2.61
2019-01-30T12:05:58.256Z,2.69
2019-01-30T12:08:33.486Z,2.73
2019-01-30T12:11:12.163Z,2.79
2019-01-30T12:13:49.066Z,2.75
2019-01-30T12:16:21.479Z,2.88
2019-01-30T12:18:56.784Z,2.86
2019-01-30T12:21:32.047Z,2.96
2019-01-30T12:24:04.443Z,2.95
2019-01-30T12:26:36.463Z,3.08
2019-01-30T12:29:21.650Z,3.11
2019-01-30T12:32:02.789Z,3.08
2019-01-30T12:34:36.550Z,3.02
2019-01-30T12:37:21.585Z,3.05
2019-01-30T12:39:53.800Z,3.16
2019-01-30T12:42:29.917Z,3.10
2019-01-30T12:45:07.420Z,3.14
2019-01-30T12:47:43.635Z,3.11
2019-01-30T12:50:17.030Z,3.20
2019-01-30T12:52:58.093Z,3.21
2019-01-30T12:55:32.650Z,3.21
2019-01-30T12:58:16.799Z,3.13
2019-01-30T13:00:48.245Z,3.08
2019-01-30T13:03:32.883Z,2.95
2019-01-30T13:06:08.366Z,2.83
2019-01-30T13:08:45.167Z,2.65
2019-01-30T13:11:25.782Z,2.64
2019-01-30T13:14:06.432Z,2.63
2019-01-30T13:16:48.487Z,2.62
2019-01-30T13:19:27.504Z,2.62
2019-01-30T13:22:04.112Z,2.52
2019-01-30T13:24:35.230Z,2.42
2019-01-30T13:27:13.787Z,2.37
2019-01-30T13:29:46.517Z,2.39
2019-01-30T13:32:26.808Z,2.44
2019-01-30T13:35:00.294Z,2.60
2019-01-30T13:37:40.862Z,2.71
2019-01-30T13:40:20.496Z,2.83
2019-01-30T13:42:57.060Z,2.98
2019-01-30T13:45:33.824Z,3.07
2019-01-30T13:48:22.878Z,3.10
2019-01-30T13:54:06.391Z,3.18
2019-01-30T13:57:01.664Z,3.21
2019-01-30T13:59:43.819Z,3.20
2019-01-30T14:02:38.491Z,3.14
2019-01-30T14:05:30.739Z,3.16
2019-01-30T14:08:16.393Z,3.19
2019-01-30T14:11:12.994Z,3.16
2019-01-30T14:14:00.586Z,3.16
2019-01-30T14:16:43.053Z,3.04
2019-01-30T14:19:18.851Z,3.00
2019-01-30T14:21:56.174Z,3.07
2019-01-30T14:24:27.469Z,3.11
2019-01-30T14:27:02.362Z,3.14
2019-01-30T14:29:36.348Z,3.05
2019-01-30T14:32:15.896Z,2.95
2019-01-30T14:34:46.088Z,2.89
2019-01-30T14:37:36.364Z,2.96
2019-01-30T14:40:18.611Z,3.02
2019-01-30T14:42:50.501Z,3.07
2019-01-30T14:45:20.790Z,3.11
2019-01-30T14:47:56.517Z,3.05
2019-01-30T14:50:29.304Z,2.91
2019-01-30T14:53:09.145Z,2.96
2019-01-30T14:55:50.442Z,2.94
2019-01-30T14:58:24.921Z,3.04
2019-01-30T15:01:06.126Z,3.08
2019-01-30T15:03:39.396Z,3.11
2019-01-30T15:06:10.876Z,3.08
2019-01-30T15:08:43.669Z,3.08
2019-01-30T15:11:22.359Z,3.09
2019-01-30T15:13:52.738Z,3.10
2019-01-30T15:16:29.223Z,3.13
2019-01-30T15:19:05.741Z,3.11
2019-01-30T15:21:51.213Z,3.14
2019-01-30T15:24:26.645Z,3.04
2019-01-30T15:27:04.983Z,3.05
2019-01-30T15:29:37.287Z,3.02
2019-01-30T15:32:10.667Z,2.89
2019-01-30T15:34:44.948Z,2.81
2019-01-30T15:37:22.551Z,2.77
2019-01-30T15:39:54.172Z,3.15
2019-01-30T15:42:34.643Z,3.06
2019-01-30T15:45:12.890Z,2.83
2019-01-30T15:47:49.444Z,2.91
2019-01-30T15:50:27.911Z,3.03
2019-01-30T15:53:03.065Z,3.00
2019-01-30T15:55:39.043Z,2.93
2019-01-30T15:58:15.822Z,2.93
2019-01-30T16:01:04.069Z,3.00
2019-01-30T16:03:40.521Z,2.99
2019-01-30T16:06:11.818Z,2.89
2019-01-30T16:08:41.988Z,2.91
2019-01-30T16:11:17.381Z,2.93
2019-01-30T16:14:07.992Z,2.90
2019-01-30T16:16:57.494Z,2.88
2019-01-30T16:20:00.890Z,2.88
2019-01-30T16:23:09.355Z,2.90
2019-01-30T16:25:57.240Z,2.94
2019-01-30T16:28:42.741Z,2.99
2019-01-30T16:31:34.373Z,2.92
2019-01-30T16:34:34.996Z,2.86
2019-01-30T16:37:19.575Z,2.86
2019-01-30T16:39:56.807Z,2.79
2019-01-30T16:42:34.863Z,2.85
2019-01-30T16:45:16.310Z,2.86
2019-01-30T16:47:56.853Z,2.78
2019-01-30T16:50:37.068Z,2.74
2019-01-30T16:53:12.989Z,2.77
2019-01-30T16:55:52.008Z,2.77
2019-01-30T16:58:29.239Z,2.76
2019-01-30T17:01:08.745Z,2.75
2019-01-30T17:03:50.346Z,2.81
2019-01-30T17:06:27.650Z,2.85
2019-01-30T17:09:08.508Z,2.86
2019-01-30T17:11:49.597Z,2.85
2019-01-30T17:14:31.937Z,2.80
2019-01-30T17:17:17.705Z,2.82
2019-01-30T17:19:59.821Z,2.75
2019-01-30T17:22:36.308Z,2.73
2019-01-30T17:25:17.293Z,2.74
2019-01-30T17:27:55.569Z,2.74
2019-01-30T17:30:37.888Z,2.77
2019-01-30T17:33:18.496Z,2.78
2019-01-30T17:39:34.438Z,2.81
2019-01-30T17:42:07.716Z,2.78
2019-01-30T17:44:40.460Z,2.78
2019-01-30T17:47:14.343Z,2.75
2019-01-30T17:49:46.450Z,2.76
2019-01-30T17:52:39.391Z,2.77
2019-01-30T17:55:17.498Z,2.80
2019-01-30T17:57:59.161Z,2.80
2019-01-30T18:00:40.282Z,2.85
2019-01-30T18:03:16.114Z,2.89
2019-01-30T18:05:46.550Z,2.91
2019-01-30T18:08:16.480Z,2.89
2019-01-30T18:10:48.292Z,2.87
2019-01-30T18:13:19.011Z,2.87
2019-01-30T18:15:48.843Z,2.88
2019-01-30T18:18:18.954Z,2.93
2019-01-30T18:20:50.099Z,3.00
2019-01-30T18:23:20.183Z,3.08
2019-01-30T18:25:50.134Z,3.10
2019-01-30T18:28:20.931Z,3.16
2019-01-30T18:30:51.712Z,3.16
2019-01-30T18:33:22.188Z,3.17
2019-01-30T18:35:52.201Z,3.14
2019-01-30T18:38:22.713Z,3.11
2019-01-30T18:40:52.649Z,3.05
2019-01-30T18:43:23.487Z,3.08
2019-01-30T18:45:53.424Z,3.06
2019-01-30T18:48:24.683Z,2.93
2019-01-30T18:50:56.842Z,2.90
2019-01-30T18:53:27.071Z,2.97
2019-01-30T18:55:56.911Z,2.96
2019-01-30T18:58:27.677Z,2.96
2019-01-30T19:00:58.415Z,2.94
2019-01-30T19:03:32.255Z,2.91
2019-01-30T19:06:02.595Z,2.88
2019-01-30T19:08:32.407Z,2.91
2019-01-30T19:11:02.392Z,2.91
2019-01-30T19:13:32.211Z,2.83
2019-01-30T19:16:02.416Z,2.86
2019-01-30T19:18:32.422Z,2.75
2019-01-30T19:21:02.336Z,2.86
2019-01-30T19:23:32.527Z,2.80
2019-01-30T19:26:12.328Z,2.92
2019-01-30T19:28:42.983Z,2.81
2019-01-30T19:31:12.940Z,2.98
2019-01-30T19:33:42.791Z,2.93
2019-01-30T19:36:12.620Z,2.98
2019-01-30T19:38:42.467Z,2.94
2019-01-30T19:41:13.375Z,2.88
2019-01-30T19:43:43.243Z,2.90
2019-01-30T19:46:14.574Z,2.89
2019-01-30T19:48:44.650Z,2.86
2019-01-30T19:51:14.457Z,2.84
2019-01-30T19:53:45.277Z,2.80
2019-01-30T19:56:15.616Z,2.80
2019-01-30T19:58:45.492Z,2.79
2019-01-30T20:01:15.408Z,2.75
2019-01-30T20:03:58.413Z,2.70
2019-01-30T20:06:32.964Z,2.59
2019-01-30T20:09:19.490Z,2.72
2019-01-30T20:11:53.848Z,2.73
2019-01-30T20:14:52.922Z,2.71
2019-01-30T20:17:25.734Z,2.60
2019-01-30T20:19:55.532Z,2.65
2019-01-30T20:22:27.911Z,2.71
2019-01-30T20:24:57.735Z,2.68
2019-01-30T20:27:32.468Z,2.66
2019-01-30T20:30:05.866Z,2.70
2019-01-30T20:32:36.065Z,2.62
2019-01-30T20:35:07.762Z,2.76
2019-01-30T20:37:37.793Z,2.86
2019-01-30T20:40:13.404Z,2.84
2019-01-30T20:42:43.794Z,2.83
2019-01-30T20:45:15.035Z,2.85
2019-01-30T20:47:45.058Z,2.86
2019-01-30T20:50:18.939Z,2.77
2019-01-30T20:52:49.214Z,2.68
2019-01-30T20:55:20.300Z,2.65
2019-01-30T20:57:50.299Z,2.66
2019-01-30T21:00:37.050Z,2.59
2019-01-30T21:03:12.034Z,2.50
2019-01-30T21:05:44.887Z,2.29
2019-01-30T21:08:14.560Z,2.18
2019-01-30T21:10:44.704Z,2.10
2019-01-30T21:13:14.538Z,2.00
2019-01-30T21:15:44.477Z,1.94
2019-01-30T21:18:18.005Z,1.85
2019-01-30T21:20:46.845Z,1.80
2019-01-30T21:23:16.774Z,1.82
2019-01-30T21:25:50.087Z,1.86
2019-01-30T21:28:20.792Z,1.91
2019-01-30T21:30:50.616Z,1.93
2019-01-30T21:33:20.518Z,1.94
2019-01-30T21:35:50.429Z,1.95
2019-01-30T21:38:21.378Z,1.97
2019-01-30T21:40:51.227Z,1.97
2019-01-30T21:43:21.181Z,1.99
2019-01-30T21:45:51.583Z,2.03
2019-01-30T21:48:21.421Z,1.96
2019-01-30T21:50:52.459Z,2.01
2019-01-30T21:53:22.676Z,1.95
2019-01-30T21:55:52.514Z,1.92
2019-01-30T21:58:24.715Z,1.75
2019-01-30T22:00:54.837Z,1.63
2019-01-30T22:03:29.408Z,1.60
2019-01-30T22:05:59.530Z,1.59
2019-01-30T22:08:29.362Z,1.56
2019-01-30T22:10:59.240Z,1.55
2019-01-30T22:13:30.038Z,1.56
2019-01-30T22:15:59.835Z,1.55
2019-01-30T22:18:29.636Z,1.59
2019-01-30T22:20:59.456Z,1.58
2019-01-30T22:23:30.327Z,1.61
2019-01-30T22:26:00.174Z,1.67
2019-01-30T22:28:30.169Z,1.71
2019-01-30T22:30:59.988Z,1.60
2019-01-30T22:33:30.078Z,1.45
2019-01-30T22:36:02.070Z,1.60
2019-01-30T22:38:32.339Z,1.56
2019-01-30T22:41:02.186Z,1.43
2019-01-30T22:43:32.460Z,1.58
2019-01-30T22:46:02.548Z,1.63
2019-01-30T22:48:33.044Z,1.39
2019-01-30T22:51:03.421Z,1.30
2019-01-30T22:53:33.358Z,1.32
2019-01-30T22:56:03.496Z,1.27
2019-01-30T22:58:33.703Z,1.29
2019-01-30T23:01:10.087Z,1.28
2019-01-30T23:03:55.353Z,1.30
2019-01-30T23:06:30.959Z,1.33
2019-01-30T23:09:09.798Z,1.39
2019-01-30T23:12:00.947Z,1.46
2019-01-30T23:14:33.418Z,1.49
2019-01-30T23:17:17.945Z,1.57
2019-01-30T23:19:51.178Z,1.62
2019-01-30T23:22:36.681Z,1.59
2019-01-30T23:25:38.050Z,1.69
2019-01-30T23:28:10.876Z,1.63
2019-01-30T23:30:51.398Z,1.62
2019-01-30T23:33:29.727Z,1.58
2019-01-30T23:36:11.521Z,1.60
2019-01-30T23:38:57.349Z,1.65
2019-01-30T23:41:33.020Z,1.68
2019-01-30T23:44:14.723Z,1.75
2019-01-30T23:47:04.278Z,1.78
2019-01-30T23:49:39.848Z,1.75
2019-01-30T23:52:41.422Z,1.74
2019-01-30T23:55:17.314Z,1.74
2019-01-30T23:58:04.858Z,1.78
